createdAt,value
2023-01-19T00:00:40.954Z,2.30
2023-01-19T00:03:26.406Z,2.30
2023-01-19T00:06:12.215Z,2.30
2023-01-19T00:08:57.718Z,2.30
2023-01-19T00:11:42.803Z,2.30
2023-01-19T00:14:28.127Z,2.30
2023-01-19T00:17:13.579Z,2.30
2023-01-19T00:19:58.950Z,2.40
2023-01-19T00:22:44.250Z,2.40
2023-01-19T00:25:29.854Z,2.40
2023-01-19T00:28:17.528Z,2.40
2023-01-19T00:31:02.616Z,2.30
2023-01-19T00:33:49.210Z,2.20
2023-01-19T00:36:34.629Z,2.10
2023-01-19T00:39:19.634Z,2.10
2023-01-19T00:42:23.615Z,2.10
2023-01-19T00:45:11.199Z,2.10
2023-01-19T00:47:59.200Z,2.00
2023-01-19T00:50:44.356Z,2.00
2023-01-19T00:53:32.407Z,2.00
2023-01-19T00:56:17.909Z,2.00
2023-01-19T00:59:03.263Z,2.00
2023-01-19T01:01:48.615Z,2.00
2023-01-19T01:04:34.181Z,1.90
2023-01-19T01:07:19.549Z,1.90
2023-01-19T01:10:05.278Z,1.90
2023-01-19T01:12:54.847Z,1.90
2023-01-19T01:15:43.603Z,1.90
2023-01-19T01:18:28.848Z,1.80
2023-01-19T01:21:14.364Z,1.80
2023-01-19T01:23:59.667Z,1.70
2023-01-19T01:26:45.015Z,1.70
2023-01-19T01:29:30.366Z,1.70
2023-01-19T01:32:16.745Z,1.70
2023-01-19T01:35:02.058Z,1.60
2023-01-19T01:37:47.333Z,1.70
2023-01-19T01:40:32.619Z,1.70
2023-01-19T01:43:20.622Z,1.80
2023-01-19T01:46:06.128Z,1.70
2023-01-19T01:48:55.359Z,1.60
2023-01-19T01:51:51.064Z,1.60
2023-01-19T01:54:36.500Z,1.50
2023-01-19T01:57:23.046Z,1.50
2023-01-19T02:00:09.396Z,1.40
2023-01-19T02:02:55.267Z,1.10
2023-01-19T02:05:42.096Z,1.20
2023-01-19T02:08:48.935Z,1.10
2023-01-19T02:11:54.582Z,1.30
2023-01-19T02:14:39.899Z,1.20
2023-01-19T02:17:25.172Z,1.20
2023-01-19T02:20:11.680Z,1.30
2023-01-19T02:23:02.093Z,1.20
2023-01-19T02:25:49.003Z,1.30
2023-01-19T02:28:34.329Z,1.30
2023-01-19T02:31:19.873Z,1.30
2023-01-19T02:34:07.885Z,1.30
2023-01-19T02:36:56.376Z,1.30
2023-01-19T02:39:45.149Z,1.30
2023-01-19T02:42:43.613Z,1.30
2023-01-19T02:45:29.042Z,1.40
2023-01-19T02:48:16.022Z,1.40
2023-01-19T02:51:04.599Z,1.30
2023-01-19T02:53:59.756Z,1.30
2023-01-19T02:57:19.095Z,1.30
2023-01-19T03:00:25.125Z,1.30
2023-01-19T03:03:28.752Z,1.30
2023-01-19T03:06:50.169Z,1.20
2023-01-19T03:09:43.350Z,1.20
2023-01-19T03:12:45.306Z,1.20
2023-01-19T03:15:35.336Z,1.20
2023-01-19T03:18:23.101Z,1.20
2023-01-19T03:21:10.689Z,1.10
2023-01-19T03:24:01.837Z,1.10
2023-01-19T03:26:56.458Z,1.10
2023-01-19T03:29:48.349Z,1.20
2023-01-19T03:32:39.205Z,1.10
2023-01-19T03:35:29.347Z,1.10
2023-01-19T03:38:17.219Z,1.10
2023-01-19T03:41:08.070Z,1.10
2023-01-19T03:43:55.571Z,1.10
2023-01-19T03:46:41.243Z,1.00
2023-01-19T03:49:26.803Z,0.90
2023-01-19T03:52:12.827Z,0.80
2023-01-19T03:54:57.854Z,0.80
2023-01-19T03:57:43.677Z,0.80
2023-01-19T04:00:29.088Z,0.70
2023-01-19T04:03:16.524Z,0.70
2023-01-19T04:06:02.017Z,0.70
2023-01-19T04:08:51.382Z,0.60
2023-01-19T04:11:36.473Z,0.50
2023-01-19T04:14:22.320Z,0.50
2023-01-19T04:17:07.621Z,0.50
2023-01-19T04:19:53.195Z,0.50
2023-01-19T04:22:39.296Z,0.40
2023-01-19T04:25:24.673Z,0.40
2023-01-19T04:28:10.068Z,0.40
2023-01-19T04:30:55.411Z,0.40
2023-01-19T04:33:40.693Z,0.30
2023-01-19T04:36:26.061Z,0.40
2023-01-19T04:39:11.769Z,0.40
2023-01-19T04:41:57.549Z,0.40
2023-01-19T04:44:43.001Z,0.40
2023-01-19T04:47:28.393Z,0.40
2023-01-19T04:50:15.173Z,0.30
2023-01-19T04:53:01.202Z,0.20
2023-01-19T04:55:46.935Z,0.20
2023-01-19T04:58:32.177Z,0.20
2023-01-19T05:01:17.709Z,0.20
2023-01-19T05:04:05.095Z,0.10
2023-01-19T05:06:51.597Z,0.20
2023-01-19T05:09:36.953Z,0.10
2023-01-19T05:12:22.540Z,0.20
2023-01-19T05:15:09.627Z,0.20
2023-01-19T05:17:57.942Z,0.20
2023-01-19T05:20:43.337Z,0.20
2023-01-19T05:23:31.008Z,0.20
2023-01-19T05:26:16.147Z,0.20
2023-01-19T05:29:01.313Z,0.10
2023-01-19T05:31:46.724Z,0.20
2023-01-19T05:34:32.150Z,0.20
2023-01-19T05:37:17.633Z,0.30
2023-01-19T05:40:03.475Z,0.30
2023-01-19T05:42:48.715Z,0.30
2023-01-19T05:45:34.398Z,0.30
2023-01-19T05:48:19.796Z,0.30
2023-01-19T05:51:05.421Z,0.40
2023-01-19T05:53:50.790Z,0.50
2023-01-19T05:56:36.070Z,0.40
2023-01-19T05:59:24.140Z,0.40
2023-01-19T06:02:09.415Z,0.40
2023-01-19T06:04:55.119Z,0.30
2023-01-19T06:07:40.443Z,0.40
2023-01-19T06:10:25.704Z,0.50
2023-01-19T06:13:11.228Z,0.50
2023-01-19T06:16:01.274Z,0.50
2023-01-19T06:18:46.604Z,0.50
2023-01-19T06:21:32.452Z,0.40
2023-01-19T06:24:18.119Z,0.40
2023-01-19T06:27:03.270Z,0.80
2023-01-19T06:29:48.735Z,0.90
2023-01-19T06:32:34.091Z,0.90
2023-01-19T06:35:19.518Z,0.90
2023-01-19T06:38:05.009Z,1.00
2023-01-19T06:40:55.817Z,0.70
2023-01-19T06:43:40.953Z,0.70
2023-01-19T06:46:27.092Z,0.70
2023-01-19T06:49:12.407Z,0.60
2023-01-19T06:51:57.675Z,0.70
2023-01-19T06:54:45.409Z,0.60
2023-01-19T06:57:30.533Z,0.70
2023-01-19T07:00:16.382Z,0.80
2023-01-19T07:03:01.897Z,0.90
2023-01-19T07:05:50.602Z,0.90
2023-01-19T07:08:37.326Z,1.00
2023-01-19T07:11:29.706Z,1.30
2023-01-19T07:14:18.374Z,1.50
2023-01-19T07:17:03.340Z,1.40
2023-01-19T07:19:48.671Z,1.20
2023-01-19T07:22:33.884Z,0.90
2023-01-19T07:25:19.208Z,0.90
2023-01-19T07:28:04.534Z,0.90
2023-01-19T07:30:54.692Z,1.00
2023-01-19T07:33:39.987Z,1.00
2023-01-19T07:36:25.474Z,1.10
2023-01-19T07:39:10.751Z,1.10
2023-01-19T07:41:56.515Z,1.00
2023-01-19T07:44:42.130Z,1.10
2023-01-19T07:47:27.528Z,1.20
2023-01-19T07:50:13.790Z,1.20
2023-01-19T07:53:05.742Z,1.20
2023-01-19T07:55:57.199Z,1.30
2023-01-19T07:58:42.452Z,1.20
2023-01-19T08:01:27.625Z,1.30
2023-01-19T08:04:13.046Z,1.30
2023-01-19T08:06:58.486Z,1.40
2023-01-19T08:09:43.793Z,1.30
2023-01-19T08:12:29.512Z,1.20
2023-01-19T08:15:15.853Z,1.30
2023-01-19T08:18:05.607Z,1.40
2023-01-19T08:20:51.368Z,1.40
2023-01-19T08:23:36.316Z,1.40
2023-01-19T08:26:27.533Z,1.40
2023-01-19T08:29:12.730Z,1.30
2023-01-19T08:32:00.194Z,1.40
2023-01-19T08:34:45.746Z,1.30
2023-01-19T08:37:32.663Z,1.40
2023-01-19T08:40:20.176Z,1.40
2023-01-19T08:43:08.036Z,1.50
2023-01-19T08:45:53.347Z,1.40
2023-01-19T08:48:39.923Z,1.30
2023-01-19T08:51:25.339Z,1.30
2023-01-19T08:54:10.731Z,1.40
2023-01-19T08:56:56.307Z,1.50
2023-01-19T08:59:41.473Z,1.30
2023-01-19T09:02:26.885Z,1.30
2023-01-19T09:05:12.072Z,1.30
2023-01-19T09:07:57.591Z,1.50
2023-01-19T09:10:49.710Z,1.60
2023-01-19T09:13:34.809Z,1.40
2023-01-19T09:16:20.340Z,1.20
2023-01-19T09:19:08.520Z,1.20
2023-01-19T09:21:54.965Z,1.10
2023-01-19T09:24:40.350Z,1.00
2023-01-19T09:27:25.694Z,1.10
2023-01-19T09:30:11.638Z,1.00
2023-01-19T09:33:02.863Z,1.00
2023-01-19T09:35:49.212Z,0.80
2023-01-19T09:38:34.693Z,0.70
2023-01-19T09:41:22.462Z,0.80
2023-01-19T09:44:17.004Z,0.80
2023-01-19T09:47:12.448Z,0.90
2023-01-19T09:50:06.516Z,0.70
2023-01-19T09:53:16.782Z,0.70
2023-01-19T09:56:02.063Z,0.80
2023-01-19T09:58:49.190Z,0.60
2023-01-19T10:01:46.808Z,0.60
2023-01-19T10:04:53.853Z,0.80
2023-01-19T10:08:06.120Z,0.90
2023-01-19T10:10:57.682Z,0.90
2023-01-19T10:13:51.777Z,0.90
2023-01-19T10:16:50.123Z,0.80
2023-01-19T10:19:38.172Z,0.90
2023-01-19T10:22:26.850Z,0.80
2023-01-19T10:25:23.696Z,0.90
2023-01-19T10:28:11.617Z,0.80
2023-01-19T10:30:56.711Z,0.80
2023-01-19T10:33:42.204Z,0.90
2023-01-19T10:36:39.273Z,1.00
2023-01-19T10:39:24.500Z,1.00
2023-01-19T10:42:15.087Z,1.00
2023-01-19T10:45:00.401Z,1.00
2023-01-19T10:47:47.424Z,1.10
2023-01-19T10:50:39.754Z,1.30
2023-01-19T10:53:25.703Z,1.40
2023-01-19T10:56:22.999Z,1.30
2023-01-19T10:59:31.156Z,1.20
2023-01-19T11:02:32.702Z,1.30
2023-01-19T11:05:24.264Z,1.30
2023-01-19T11:08:23.584Z,1.40
2023-01-19T11:11:09.502Z,1.30
2023-01-19T11:14:10.262Z,1.30
2023-01-19T11:16:56.942Z,1.30
2023-01-19T11:19:42.391Z,1.20
2023-01-19T11:22:33.100Z,1.30
2023-01-19T11:25:31.559Z,1.30
2023-01-19T11:28:37.383Z,1.20
2023-01-19T11:31:28.732Z,1.30
2023-01-19T11:34:35.088Z,1.30
2023-01-19T11:37:20.208Z,1.30
2023-01-19T11:40:10.952Z,1.30
2023-01-19T11:42:58.040Z,1.30
2023-01-19T11:45:45.664Z,1.40
2023-01-19T11:48:39.219Z,1.30
2023-01-19T11:51:27.850Z,1.30
2023-01-19T11:54:25.589Z,1.60
2023-01-19T11:57:15.983Z,1.80
2023-01-19T12:00:17.398Z,1.80
2023-01-19T12:03:17.095Z,1.90
2023-01-19T12:06:14.045Z,1.90
2023-01-19T12:09:11.205Z,2.00
2023-01-19T12:12:08.497Z,2.10
2023-01-19T12:15:05.127Z,2.00
2023-01-19T12:17:53.587Z,2.00
2023-01-19T12:20:44.489Z,2.10
2023-01-19T12:23:46.348Z,2.00
2023-01-19T12:26:59.061Z,2.00
2023-01-19T12:29:46.275Z,2.00
2023-01-19T12:32:36.830Z,1.80
2023-01-19T12:36:00.823Z,1.90
2023-01-19T12:38:55.364Z,1.90
2023-01-19T12:41:42.472Z,1.90
2023-01-19T12:44:30.711Z,2.00
2023-01-19T12:47:15.682Z,2.00
2023-01-19T12:50:07.446Z,2.00
2023-01-19T12:52:57.133Z,2.10
2023-01-19T12:55:46.639Z,2.20
2023-01-19T12:58:33.753Z,2.20
2023-01-19T13:01:21.656Z,2.80
2023-01-19T13:04:30.966Z,3.40
2023-01-19T13:07:18.056Z,3.30
2023-01-19T13:10:42.029Z,3.10
2023-01-19T13:13:38.377Z,2.80
2023-01-19T13:16:24.999Z,2.50
2023-01-19T13:19:21.796Z,2.50
2023-01-19T13:22:49.661Z,2.40
2023-01-19T13:25:35.686Z,2.30
2023-01-19T13:28:30.250Z,2.20
2023-01-19T13:31:16.274Z,2.20
2023-01-19T13:34:03.730Z,2.20
2023-01-19T13:36:54.385Z,2.20
2023-01-19T13:39:44.372Z,2.20
2023-01-19T13:42:35.551Z,2.30
2023-01-19T13:45:31.147Z,2.10
2023-01-19T13:48:19.137Z,2.10
2023-01-19T13:51:17.135Z,2.10
2023-01-19T13:54:02.377Z,2.10
2023-01-19T13:56:50.185Z,2.10
2023-01-19T13:59:35.654Z,2.20
2023-01-19T14:02:21.623Z,2.20
2023-01-19T14:05:20.391Z,2.20
2023-01-19T14:08:08.884Z,2.20
2023-01-19T14:10:53.829Z,2.20
2023-01-19T14:13:44.940Z,2.30
2023-01-19T14:16:30.564Z,2.30
2023-01-19T14:19:15.856Z,2.30
2023-01-19T14:22:05.342Z,2.50
2023-01-19T14:24:50.592Z,2.50
2023-01-19T14:27:36.018Z,2.90
2023-01-19T14:30:22.552Z,2.90
2023-01-19T14:33:41.012Z,2.80
2023-01-19T14:36:36.599Z,2.70
2023-01-19T14:39:26.107Z,2.60
2023-01-19T14:42:17.596Z,2.50
2023-01-19T14:45:15.932Z,2.50
2023-01-19T14:48:12.160Z,2.50
2023-01-19T14:51:04.272Z,2.60
2023-01-19T14:53:53.694Z,2.70
2023-01-19T14:56:39.506Z,2.70
2023-01-19T14:59:24.874Z,2.70
2023-01-19T15:02:10.491Z,2.70
2023-01-19T15:04:57.845Z,2.80
2023-01-19T15:07:46.072Z,2.80
2023-01-19T15:10:31.676Z,2.70
2023-01-19T15:13:20.396Z,2.70
2023-01-19T15:16:06.721Z,2.70
2023-01-19T15:18:52.092Z,2.60
2023-01-19T15:21:41.844Z,2.70
2023-01-19T15:24:27.002Z,2.60
2023-01-19T15:27:12.383Z,2.70
2023-01-19T15:29:59.648Z,2.70
2023-01-19T15:32:45.867Z,2.60
2023-01-19T15:35:31.356Z,2.60
2023-01-19T15:38:17.027Z,2.60
2023-01-19T15:41:02.607Z,2.60
2023-01-19T15:43:48.376Z,2.60
2023-01-19T15:46:33.417Z,2.60
2023-01-19T15:49:18.761Z,2.70
2023-01-19T15:52:04.242Z,2.60
2023-01-19T15:54:49.580Z,2.50
2023-01-19T15:57:35.123Z,2.60
2023-01-19T16:00:20.616Z,2.40
2023-01-19T16:03:06.003Z,2.50
2023-01-19T16:05:51.751Z,2.70
2023-01-19T16:08:37.821Z,2.80
2023-01-19T16:11:23.031Z,2.80
2023-01-19T16:14:08.445Z,2.90
2023-01-19T16:16:53.691Z,2.80
2023-01-19T16:19:39.430Z,2.70
2023-01-19T16:22:24.802Z,2.60
2023-01-19T16:25:10.344Z,2.60
2023-01-19T16:27:56.887Z,2.60
2023-01-19T16:30:42.058Z,2.60
2023-01-19T16:33:27.330Z,2.60
2023-01-19T16:36:27.397Z,2.70
2023-01-19T16:39:15.065Z,2.80
2023-01-19T16:42:00.481Z,2.90
2023-01-19T16:44:45.841Z,2.80
2023-01-19T16:47:32.775Z,2.90
2023-01-19T16:50:19.169Z,2.90
2023-01-19T16:53:04.271Z,2.90
2023-01-19T16:55:49.618Z,3.00
2023-01-19T16:58:37.435Z,3.00
2023-01-19T17:01:23.977Z,3.00
2023-01-19T17:04:09.411Z,2.90
2023-01-19T17:06:55.314Z,2.90
2023-01-19T17:09:40.660Z,2.90
2023-01-19T17:12:26.049Z,2.70
2023-01-19T17:15:11.580Z,2.70
2023-01-19T17:17:57.025Z,2.70
2023-01-19T17:20:42.267Z,2.60
2023-01-19T17:23:28.262Z,2.60
2023-01-19T17:26:14.420Z,2.70
2023-01-19T17:29:01.170Z,2.70
2023-01-19T17:31:46.806Z,2.50
2023-01-19T17:34:32.379Z,2.50
2023-01-19T17:37:17.744Z,2.50
2023-01-19T17:40:04.138Z,2.50
2023-01-19T17:42:49.309Z,2.60
2023-01-19T17:45:36.239Z,2.60
2023-01-19T17:48:21.294Z,2.70
2023-01-19T17:51:11.708Z,2.60
2023-01-19T17:53:58.245Z,2.60
2023-01-19T17:56:43.666Z,2.60
2023-01-19T17:59:29.433Z,2.40
2023-01-19T18:02:14.538Z,2.30
2023-01-19T18:05:02.331Z,2.20
2023-01-19T18:07:47.999Z,2.20
2023-01-19T18:10:33.354Z,2.30
2023-01-19T18:13:18.584Z,2.30
2023-01-19T18:16:09.760Z,2.40
2023-01-19T18:18:56.689Z,2.50
2023-01-19T18:21:42.286Z,2.30
2023-01-19T18:24:27.694Z,2.40
2023-01-19T18:27:13.147Z,2.50
2023-01-19T18:29:58.358Z,2.60
2023-01-19T18:32:43.828Z,2.60
2023-01-19T18:35:29.384Z,2.70
2023-01-19T18:38:14.906Z,2.70
2023-01-19T18:41:01.607Z,2.80
2023-01-19T18:43:46.705Z,2.90
2023-01-19T18:46:32.186Z,2.80
2023-01-19T18:49:17.345Z,2.90
2023-01-19T18:52:03.854Z,2.90
2023-01-19T18:54:49.234Z,3.00
2023-01-19T18:57:35.631Z,2.90
2023-01-19T19:00:21.298Z,3.00
2023-01-19T19:03:10.239Z,2.90
2023-01-19T19:05:55.698Z,2.90
2023-01-19T19:08:43.199Z,2.80
2023-01-19T19:11:28.662Z,2.90
2023-01-19T19:14:13.722Z,2.90
2023-01-19T19:16:59.178Z,2.90
2023-01-19T19:19:44.414Z,2.90
2023-01-19T19:22:29.886Z,2.90
2023-01-19T19:25:15.428Z,2.70
2023-01-19T19:28:00.694Z,2.80
2023-01-19T19:30:47.832Z,2.80
2023-01-19T19:33:33.933Z,2.70
2023-01-19T19:36:20.866Z,2.80
2023-01-19T19:39:06.374Z,2.80
2023-01-19T19:41:51.802Z,2.80
2023-01-19T19:44:37.285Z,2.80
2023-01-19T19:47:24.401Z,2.80
2023-01-19T19:50:11.694Z,2.70
2023-01-19T19:52:58.772Z,2.80
2023-01-19T19:55:43.998Z,2.80
2023-01-19T19:58:30.539Z,2.80
2023-01-19T20:01:18.134Z,2.80
2023-01-19T20:04:06.806Z,2.80
2023-01-19T20:06:52.170Z,2.90
2023-01-19T20:09:37.604Z,3.00
2023-01-19T20:12:23.106Z,3.00
2023-01-19T20:15:09.039Z,2.90
2023-01-19T20:17:56.069Z,3.00
2023-01-19T20:20:41.401Z,2.90
2023-01-19T20:23:27.204Z,2.90
2023-01-19T20:26:15.089Z,2.90
2023-01-19T20:29:03.078Z,2.90
2023-01-19T20:31:52.107Z,2.90
2023-01-19T20:34:38.406Z,2.90
2023-01-19T20:37:23.816Z,2.80
2023-01-19T20:40:09.698Z,2.90
2023-01-19T20:42:54.835Z,2.80
2023-01-19T20:45:40.058Z,2.80
2023-01-19T20:48:25.925Z,2.70
2023-01-19T20:51:13.510Z,2.70
2023-01-19T20:53:59.161Z,2.70
2023-01-19T20:56:44.625Z,2.70
2023-01-19T20:59:29.907Z,2.80
2023-01-19T21:02:16.762Z,2.70
2023-01-19T21:05:01.823Z,2.70
2023-01-19T21:08:02.291Z,2.70
2023-01-19T21:10:47.304Z,2.70
2023-01-19T21:13:33.791Z,2.70
2023-01-19T21:16:18.791Z,2.80
2023-01-19T21:19:04.477Z,2.80
2023-01-19T21:21:49.891Z,2.70
2023-01-19T21:24:35.451Z,2.70
2023-01-19T21:27:20.775Z,2.80
2023-01-19T21:30:06.649Z,2.70
2023-01-19T21:32:52.075Z,2.80
2023-01-19T21:35:38.274Z,2.80
2023-01-19T21:38:26.783Z,2.80
2023-01-19T21:41:12.763Z,2.80
2023-01-19T21:43:59.895Z,2.90
2023-01-19T21:46:44.991Z,2.90
2023-01-19T21:49:30.876Z,2.90
2023-01-19T21:52:16.178Z,2.90
2023-01-19T21:55:01.607Z,2.90
2023-01-19T21:57:46.846Z,3.00
2023-01-19T22:00:32.656Z,2.90
2023-01-19T22:03:17.829Z,3.00
2023-01-19T22:06:09.404Z,3.00
2023-01-19T22:08:54.957Z,3.00
2023-01-19T22:11:40.473Z,3.10
2023-01-19T22:14:25.818Z,3.10
2023-01-19T22:17:11.334Z,3.10
2023-01-19T22:19:56.700Z,3.10
2023-01-19T22:22:42.033Z,3.10
2023-01-19T22:25:28.016Z,3.10
2023-01-19T22:28:13.099Z,3.10
2023-01-19T22:31:16.569Z,3.10
2023-01-19T22:34:01.917Z,3.00
2023-01-19T22:36:47.220Z,3.10
2023-01-19T22:39:34.376Z,3.20
2023-01-19T22:42:19.426Z,3.10
2023-01-19T22:45:05.211Z,3.10
2023-01-19T22:47:50.331Z,3.10
2023-01-19T22:50:35.679Z,3.20
2023-01-19T22:53:21.149Z,3.10
2023-01-19T22:56:17.706Z,3.20
2023-01-19T22:59:04.451Z,3.10
2023-01-19T23:01:49.909Z,3.20
2023-01-19T23:04:35.424Z,3.20
2023-01-19T23:07:21.043Z,3.20
2023-01-19T23:10:06.767Z,3.20
2023-01-19T23:12:52.129Z,3.20
2023-01-19T23:15:37.439Z,3.20
2023-01-19T23:18:22.747Z,3.20
2023-01-19T23:21:10.990Z,3.20
2023-01-19T23:24:01.866Z,3.30
2023-01-19T23:26:49.343Z,3.20
2023-01-19T23:29:34.765Z,3.20
2023-01-19T23:32:20.020Z,3.20
2023-01-19T23:35:05.851Z,3.20
2023-01-19T23:37:51.222Z,3.20
2023-01-19T23:40:36.582Z,3.30
2023-01-19T23:43:21.943Z,3.20
2023-01-19T23:46:08.953Z,3.20
2023-01-19T23:48:54.408Z,3.40
2023-01-19T23:51:40.756Z,3.20
2023-01-19T23:54:25.847Z,3.20
2023-01-19T23:57:11.324Z,3.20
2023-01-19T23:59:56.837Z,3.20
